createdAt,value
2018-08-30T00:00:52.836Z,8.93
2018-08-30T00:04:02.748Z,8.47
2018-08-30T00:07:10.761Z,9.90
2018-08-30T00:10:16.945Z,9.23
2018-08-30T00:17:28.035Z,10.93
2018-08-30T00:24:33.553Z,6.73
2018-08-30T00:27:45.541Z,6.93
2018-08-30T00:30:50.848Z,7.40
2018-08-30T00:33:57.465Z,6.50
2018-08-30T00:37:03.505Z,4.33
2018-08-30T00:40:11.097Z,3.10
2018-08-30T00:43:14.330Z,3.67
2018-08-30T00:46:17.885Z,3.07
2018-08-30T00:49:23.260Z,2.30
2018-08-30T00:52:26.308Z,2.10
2018-08-30T00:55:29.759Z,2.17
2018-08-30T00:58:39.562Z,2.63
2018-08-30T01:01:42.811Z,1.97
2018-08-30T01:04:49.612Z,2.20
2018-08-30T01:07:52.720Z,1.83
2018-08-30T01:10:55.889Z,1.63
2018-08-30T01:13:59.040Z,2.00
2018-08-30T01:17:16.571Z,1.53
2018-08-30T01:20:20.739Z,2.60
2018-08-30T01:23:23.929Z,1.87
2018-08-30T01:26:27.192Z,1.83
2018-08-30T01:29:30.269Z,1.60
2018-08-30T01:32:33.473Z,2.77
2018-08-30T01:35:36.583Z,2.00
2018-08-30T01:38:39.803Z,2.30
2018-08-30T01:41:43.282Z,2.40
2018-08-30T01:44:50.064Z,3.80
2018-08-30T01:47:53.151Z,3.57
2018-08-30T01:50:57.515Z,4.83
2018-08-30T01:54:00.732Z,5.07
2018-08-30T01:57:06.209Z,5.90
2018-08-30T02:00:09.397Z,5.50
2018-08-30T02:03:18.863Z,6.70
2018-08-30T02:06:22.036Z,6.10
2018-08-30T02:09:25.065Z,6.73
2018-08-30T02:12:28.190Z,6.90
2018-08-30T02:15:31.262Z,6.60
2018-08-30T02:18:34.304Z,7.77
2018-08-30T02:21:37.405Z,7.93
2018-08-30T02:24:40.423Z,7.43
2018-08-30T02:27:43.467Z,7.10
2018-08-30T02:30:46.622Z,7.97
2018-08-30T02:33:49.738Z,8.70
2018-08-30T02:36:52.828Z,7.87
2018-08-30T02:39:55.990Z,8.40
2018-08-30T02:42:59.162Z,10.40
2018-08-30T02:46:02.618Z,8.33
2018-08-30T02:49:05.964Z,9.00
2018-08-30T02:52:09.011Z,9.60
2018-08-30T02:55:12.090Z,8.80
2018-08-30T02:58:15.176Z,7.93
2018-08-30T03:01:18.701Z,10.47
2018-08-30T03:04:21.754Z,9.87
2018-08-30T03:07:24.854Z,9.20
2018-08-30T03:10:27.911Z,8.43
2018-08-30T03:13:30.945Z,9.70
2018-08-30T03:16:34.090Z,9.40
2018-08-30T03:19:37.185Z,10.00
2018-08-30T03:22:40.957Z,9.60
2018-08-30T03:25:44.099Z,11.60
2018-08-30T03:28:47.115Z,10.17
2018-08-30T03:31:50.258Z,8.60
2018-08-30T03:34:53.491Z,8.87
2018-08-30T03:37:56.558Z,8.77
2018-08-30T03:40:59.707Z,8.90
2018-08-30T03:44:02.775Z,10.23
2018-08-30T03:47:05.924Z,10.90
2018-08-30T03:50:08.958Z,11.40
2018-08-30T03:53:11.983Z,9.90
2018-08-30T03:56:15.002Z,12.07
2018-08-30T03:59:18.101Z,10.53
2018-08-30T04:02:21.172Z,13.37
2018-08-30T04:05:24.236Z,13.47
2018-08-30T04:08:27.319Z,12.50
2018-08-30T04:11:30.303Z,13.67
2018-08-30T04:14:33.357Z,12.43
2018-08-30T04:17:36.344Z,12.77
2018-08-30T04:20:39.388Z,12.40
2018-08-30T04:23:42.487Z,13.30
2018-08-30T04:26:45.610Z,12.27
2018-08-30T04:29:48.733Z,15.43
2018-08-30T04:32:51.843Z,11.63
2018-08-30T04:35:55.017Z,11.13
2018-08-30T04:38:58.161Z,11.53
2018-08-30T04:42:01.196Z,12.00
2018-08-30T04:45:04.739Z,12.60
2018-08-30T04:48:07.773Z,12.97
2018-08-30T04:51:10.844Z,12.20
2018-08-30T04:54:13.886Z,12.63
2018-08-30T04:57:16.951Z,12.07
2018-08-30T05:00:20.134Z,11.40
2018-08-30T05:03:23.253Z,13.50
2018-08-30T05:06:26.385Z,14.83
2018-08-30T05:09:29.494Z,12.00
2018-08-30T05:12:32.636Z,12.90
2018-08-30T05:15:35.658Z,12.80
2018-08-30T05:18:38.687Z,13.60
2018-08-30T05:21:41.792Z,13.20
2018-08-30T05:24:44.816Z,13.20
2018-08-30T05:27:47.933Z,13.67
2018-08-30T05:30:51.042Z,14.37
2018-08-30T05:33:54.106Z,14.90
2018-08-30T05:36:57.148Z,14.80
2018-08-30T05:40:00.213Z,13.43
2018-08-30T05:43:03.686Z,14.00
2018-08-30T05:46:06.901Z,14.10
2018-08-30T05:49:09.899Z,13.43
2018-08-30T05:52:12.975Z,13.80
2018-08-30T05:55:16.004Z,14.87
2018-08-30T05:58:19.083Z,13.70
2018-08-30T06:01:22.184Z,14.43
2018-08-30T06:04:25.246Z,14.90
2018-08-30T06:07:28.335Z,13.33
2018-08-30T06:10:46.427Z,14.10
2018-08-30T06:13:49.502Z,13.60
2018-08-30T06:16:52.562Z,12.10
2018-08-30T06:19:55.567Z,13.13
2018-08-30T06:22:58.656Z,11.53
2018-08-30T06:26:01.703Z,9.83
2018-08-30T06:29:05.427Z,12.87
2018-08-30T06:32:08.639Z,12.27
2018-08-30T06:35:11.749Z,11.43
2018-08-30T06:38:14.737Z,12.17
2018-08-30T06:41:17.841Z,9.73
2018-08-30T06:44:20.911Z,9.30
2018-08-30T06:47:23.997Z,8.90
2018-08-30T06:50:27.075Z,9.97
2018-08-30T06:53:30.226Z,9.33
2018-08-30T06:56:33.334Z,8.40
2018-08-30T06:59:36.418Z,9.30
2018-08-30T07:02:39.459Z,8.27
2018-08-30T07:05:42.495Z,10.30
2018-08-30T07:08:45.824Z,11.23
2018-08-30T07:11:48.936Z,7.00
2018-08-30T07:14:52.082Z,12.20
2018-08-30T07:17:55.129Z,7.80
2018-08-30T07:20:58.198Z,8.40
2018-08-30T07:24:01.148Z,7.60
2018-08-30T07:27:04.291Z,9.17
2018-08-30T07:30:11.145Z,7.33
2018-08-30T07:33:14.188Z,5.60
2018-08-30T07:36:17.270Z,5.50
2018-08-30T07:39:20.339Z,6.10
2018-08-30T07:42:23.350Z,5.87
2018-08-30T07:45:26.422Z,8.20
2018-08-30T07:48:29.647Z,5.23
2018-08-30T07:51:32.675Z,5.40
2018-08-30T07:54:35.724Z,5.67
2018-08-30T07:57:38.806Z,6.90
2018-08-30T08:00:41.893Z,3.80
2018-08-30T08:03:44.883Z,4.70
2018-08-30T08:06:47.956Z,4.90
2018-08-30T08:09:50.971Z,4.50
2018-08-30T08:12:53.994Z,3.80
2018-08-30T08:15:57.078Z,4.63
2018-08-30T08:19:00.348Z,4.90
2018-08-30T08:22:03.413Z,5.03
2018-08-30T08:25:06.496Z,6.50
2018-08-30T08:28:09.630Z,6.30
2018-08-30T08:31:12.674Z,4.93
2018-08-30T08:34:15.781Z,4.07
2018-08-30T08:37:18.795Z,4.10
2018-08-30T08:40:21.837Z,3.67
2018-08-30T08:43:24.857Z,3.67
2018-08-30T08:46:27.930Z,3.87
2018-08-30T08:49:30.861Z,3.40
2018-08-30T08:52:33.889Z,3.60
2018-08-30T08:55:36.942Z,4.20
2018-08-30T08:58:40.030Z,4.10
2018-08-30T09:01:43.031Z,3.53
2018-08-30T09:04:46.101Z,4.33
2018-08-30T09:07:49.461Z,3.67
2018-08-30T09:10:52.502Z,3.93
2018-08-30T09:13:55.526Z,3.93
2018-08-30T09:16:58.603Z,4.20
2018-08-30T09:20:01.731Z,4.17
2018-08-30T09:23:11.630Z,3.70
2018-08-30T09:26:14.506Z,5.17
2018-08-30T09:29:17.662Z,4.00
2018-08-30T09:32:20.743Z,4.30
2018-08-30T09:35:23.818Z,4.10
2018-08-30T09:38:27.766Z,3.93
2018-08-30T09:41:30.788Z,3.60
2018-08-30T09:44:33.818Z,3.23
2018-08-30T09:47:36.849Z,3.43
2018-08-30T09:50:40.047Z,2.57
2018-08-30T09:53:43.043Z,3.10
2018-08-30T09:56:46.214Z,2.63
2018-08-30T09:59:49.174Z,2.50
2018-08-30T10:02:52.219Z,2.90
2018-08-30T10:05:55.401Z,2.80
2018-08-30T10:08:58.864Z,2.20
2018-08-30T10:12:01.902Z,2.40
2018-08-30T10:15:05.570Z,1.50
2018-08-30T10:18:08.731Z,2.00
2018-08-30T10:21:11.730Z,1.40
2018-08-30T10:24:14.757Z,1.97
2018-08-30T10:27:17.994Z,2.53
2018-08-30T10:30:21.077Z,2.63
2018-08-30T10:33:24.317Z,2.00
2018-08-30T10:36:27.378Z,2.00
2018-08-30T10:39:30.452Z,2.50
2018-08-30T10:42:33.574Z,2.20
2018-08-30T10:45:36.660Z,2.23
2018-08-30T10:48:39.751Z,2.23
2018-08-30T10:51:42.900Z,2.17
2018-08-30T10:54:46.078Z,2.07
2018-08-30T10:57:49.206Z,2.10
2018-08-30T11:00:52.342Z,2.37
2018-08-30T11:03:55.743Z,2.10
2018-08-30T11:06:58.903Z,2.03
2018-08-30T11:10:02.023Z,1.77
2018-08-30T11:13:05.192Z,2.03
2018-08-30T11:16:08.374Z,1.63
2018-08-30T11:19:11.372Z,2.13
2018-08-30T11:22:14.469Z,1.90
2018-08-30T11:25:17.846Z,1.93
2018-08-30T11:28:20.906Z,2.23
2018-08-30T11:31:23.910Z,2.60
2018-08-30T11:34:26.967Z,1.90
2018-08-30T11:37:30.109Z,1.50
2018-08-30T11:40:33.060Z,1.47
2018-08-30T11:43:36.184Z,2.17
2018-08-30T11:46:39.339Z,1.73
2018-08-30T11:49:42.420Z,2.37
2018-08-30T11:52:45.487Z,1.80
2018-08-30T11:55:48.491Z,2.23
2018-08-30T11:58:51.610Z,1.83
2018-08-30T12:01:54.622Z,1.67
2018-08-30T12:04:57.754Z,1.40
2018-08-30T12:08:00.884Z,2.00
2018-08-30T12:11:04.081Z,1.60
2018-08-30T12:14:06.943Z,2.07
2018-08-30T12:17:09.974Z,2.50
2018-08-30T12:20:12.980Z,2.27
2018-08-30T12:23:15.953Z,1.80
2018-08-30T12:26:18.988Z,2.20
2018-08-30T12:29:22.044Z,1.10
2018-08-30T12:32:25.304Z,1.90
2018-08-30T12:35:28.395Z,1.53
2018-08-30T12:38:31.502Z,1.83
2018-08-30T12:41:34.626Z,2.00
2018-08-30T12:44:37.690Z,2.13
2018-08-30T12:47:40.763Z,3.17
2018-08-30T12:50:44.015Z,1.40
2018-08-30T12:53:47.641Z,1.50
2018-08-30T12:56:50.770Z,1.47
2018-08-30T12:59:54.035Z,1.77
2018-08-30T13:02:56.555Z,1.70
2018-08-30T13:05:59.795Z,2.60
2018-08-30T13:09:02.818Z,1.83
2018-08-30T13:12:06.420Z,1.37
2018-08-30T13:15:10.147Z,1.90
2018-08-30T13:18:13.254Z,1.50
2018-08-30T13:21:16.485Z,1.30
2018-08-30T13:24:20.109Z,1.40
2018-08-30T13:27:29.872Z,1.23
2018-08-30T13:30:33.499Z,1.03
2018-08-30T13:33:37.018Z,1.43
2018-08-30T13:36:41.899Z,2.03
2018-08-30T13:39:45.284Z,1.60
2018-08-30T13:42:48.622Z,1.60
2018-08-30T13:45:51.612Z,3.20
2018-08-30T13:48:55.212Z,1.40
2018-08-30T13:51:58.513Z,1.53
2018-08-30T13:55:02.033Z,2.50
2018-08-30T13:58:05.219Z,1.50
2018-08-30T14:01:08.401Z,1.77
2018-08-30T14:04:11.133Z,8.43
2018-08-30T14:07:14.376Z,3.00
2018-08-30T14:10:17.679Z,1.23
2018-08-30T14:13:20.826Z,2.07
2018-08-30T14:16:23.667Z,2.50
2018-08-30T14:19:26.925Z,1.53
2018-08-30T14:22:30.212Z,1.17
2018-08-30T14:25:33.358Z,1.13
2018-08-30T14:28:36.655Z,2.33
2018-08-30T14:31:39.864Z,2.23
2018-08-30T14:34:42.956Z,1.30
2018-08-30T14:37:46.129Z,1.30
2018-08-30T14:40:49.255Z,1.50
2018-08-30T14:43:52.416Z,1.90
2018-08-30T14:46:55.639Z,1.30
2018-08-30T14:49:58.800Z,1.87
2018-08-30T14:53:02.065Z,2.50
2018-08-30T14:56:05.503Z,1.90
2018-08-30T14:59:08.764Z,1.57
2018-08-30T15:02:11.939Z,1.87
2018-08-30T15:05:15.300Z,2.00
2018-08-30T15:08:18.472Z,1.77
2018-08-30T15:11:21.821Z,2.37
2018-08-30T15:14:24.897Z,1.90
2018-08-30T15:17:28.178Z,1.97
2018-08-30T15:20:31.313Z,1.40
2018-08-30T15:23:34.737Z,2.00
2018-08-30T15:26:38.081Z,1.60
2018-08-30T15:29:41.123Z,1.80
2018-08-30T15:32:44.332Z,2.30
2018-08-30T15:35:47.540Z,1.97
2018-08-30T15:38:50.703Z,2.20
2018-08-30T15:41:53.915Z,1.73
2018-08-30T15:44:57.110Z,1.83
2018-08-30T15:48:00.274Z,1.80
2018-08-30T15:51:03.427Z,1.50
2018-08-30T15:54:06.851Z,1.50
2018-08-30T15:57:10.109Z,1.37
2018-08-30T16:00:14.849Z,1.60
2018-08-30T16:03:17.997Z,2.00
2018-08-30T16:06:21.186Z,1.70
2018-08-30T16:09:25.109Z,3.40
2018-08-30T16:12:28.337Z,2.10
2018-08-30T16:15:31.583Z,3.90
2018-08-30T16:18:34.965Z,3.40
2018-08-30T16:21:38.293Z,2.50
2018-08-30T16:24:41.401Z,1.77
2018-08-30T16:27:44.514Z,1.60
2018-08-30T16:30:47.858Z,1.30
2018-08-30T16:33:51.376Z,1.50
2018-08-30T16:36:54.569Z,2.30
2018-08-30T16:39:57.782Z,1.57
2018-08-30T16:43:00.962Z,1.30
2018-08-30T16:46:04.150Z,1.53
2018-08-30T16:49:07.693Z,1.80
2018-08-30T16:52:10.939Z,2.20
2018-08-30T16:55:14.069Z,1.77
2018-08-30T16:58:17.273Z,1.37
2018-08-30T17:01:20.910Z,1.60
2018-08-30T17:04:24.171Z,1.40
2018-08-30T17:07:27.359Z,1.40
2018-08-30T17:10:31.030Z,1.50
2018-08-30T17:13:34.249Z,1.23
2018-08-30T17:16:37.363Z,1.50
2018-08-30T17:19:40.616Z,2.17
2018-08-30T17:22:43.706Z,1.63
2018-08-30T17:25:46.869Z,1.60
2018-08-30T17:28:50.073Z,1.87
2018-08-30T17:31:53.359Z,2.73
2018-08-30T17:34:56.691Z,3.20
2018-08-30T17:38:00.528Z,1.40
2018-08-30T17:41:03.901Z,1.60
2018-08-30T17:44:07.656Z,1.83
2018-08-30T17:47:10.952Z,1.30
2018-08-30T17:50:14.075Z,1.37
2018-08-30T17:53:17.291Z,1.57
2018-08-30T17:56:20.320Z,1.57
2018-08-30T17:59:23.337Z,1.40
2018-08-30T18:02:26.540Z,1.57
2018-08-30T18:05:29.671Z,13.67
2018-08-30T18:08:32.620Z,1.53
2018-08-30T18:11:35.804Z,1.80
2018-08-30T18:14:38.918Z,1.17
2018-08-30T18:17:42.392Z,2.00
2018-08-30T18:20:46.033Z,1.40
2018-08-30T18:23:49.164Z,1.67
2018-08-30T18:26:52.348Z,1.80
2018-08-30T18:29:56.136Z,1.47
2018-08-30T18:33:00.508Z,1.40
2018-08-30T18:36:03.651Z,2.30
2018-08-30T18:39:09.150Z,1.40
2018-08-30T18:42:12.353Z,1.80
2018-08-30T18:45:15.494Z,1.30
2018-08-30T18:48:18.683Z,1.10
2018-08-30T18:51:22.180Z,2.03
2018-08-30T18:54:25.440Z,1.33
2018-08-30T18:57:28.843Z,1.50
2018-08-30T19:00:31.954Z,1.40
2018-08-30T19:03:35.028Z,0.90
2018-08-30T19:06:38.200Z,1.33
2018-08-30T19:09:41.961Z,1.70
2018-08-30T19:12:45.357Z,1.43
2018-08-30T19:15:54.362Z,1.53
2018-08-30T19:19:02.992Z,1.57
2018-08-30T19:22:06.422Z,1.47
2018-08-30T19:25:12.962Z,1.33
2018-08-30T19:28:16.131Z,3.03
2018-08-30T19:31:19.336Z,1.87
2018-08-30T19:34:22.519Z,2.37
2018-08-30T19:37:25.705Z,1.40
2018-08-30T19:40:34.366Z,1.83
2018-08-30T19:43:37.575Z,2.50
2018-08-30T19:46:40.740Z,2.73
2018-08-30T19:49:43.790Z,1.50
2018-08-30T19:52:47.290Z,1.30
2018-08-30T19:55:50.462Z,1.40
2018-08-30T19:58:54.626Z,1.20
2018-08-30T20:01:57.686Z,1.20
2018-08-30T20:05:01.014Z,1.63
2018-08-30T20:08:04.644Z,1.47
2018-08-30T20:11:07.781Z,1.27
2018-08-30T20:14:10.919Z,1.23
2018-08-30T20:17:14.061Z,1.50
2018-08-30T20:20:17.161Z,1.53
2018-08-30T20:23:20.570Z,3.13
2018-08-30T20:26:23.774Z,1.30
2018-08-30T20:29:26.887Z,1.17
2018-08-30T20:32:30.015Z,1.80
2018-08-30T20:35:33.230Z,1.00
2018-08-30T20:38:36.467Z,2.37
2018-08-30T20:41:39.715Z,1.20
2018-08-30T20:44:42.945Z,1.30
2018-08-30T20:47:46.123Z,2.13
2018-08-30T20:50:49.247Z,1.30
2018-08-30T20:53:52.410Z,4.10
2018-08-30T20:56:55.527Z,7.57
2018-08-30T20:59:58.544Z,1.37
2018-08-30T21:03:01.623Z,2.10
2018-08-30T21:06:04.645Z,1.83
2018-08-30T21:09:08.970Z,1.30
2018-08-30T21:12:11.908Z,3.00
2018-08-30T21:15:14.811Z,1.47
2018-08-30T21:18:18.160Z,1.40
2018-08-30T21:21:21.154Z,2.23
2018-08-30T21:24:25.781Z,2.00
2018-08-30T21:27:28.975Z,0.90
2018-08-30T21:30:32.101Z,1.23
2018-08-30T21:33:35.229Z,1.63
2018-08-30T21:36:38.183Z,1.40
2018-08-30T21:39:41.313Z,1.20
2018-08-30T21:42:44.454Z,1.83
2018-08-30T21:45:47.590Z,2.33
2018-08-30T21:48:51.012Z,1.40
2018-08-30T21:51:54.225Z,1.30
2018-08-30T21:54:57.316Z,1.73
2018-08-30T21:58:00.299Z,1.97
2018-08-30T22:01:03.258Z,1.30
2018-08-30T22:04:07.006Z,1.13
2018-08-30T22:07:10.047Z,1.50
2018-08-30T22:10:13.080Z,1.50
2018-08-30T22:13:16.236Z,1.30
2018-08-30T22:16:19.337Z,1.87
2018-08-30T22:19:22.382Z,2.70
2018-08-30T22:22:25.555Z,1.83
2018-08-30T22:25:28.567Z,2.20
2018-08-30T22:28:31.605Z,2.30
2018-08-30T22:31:34.968Z,1.90
2018-08-30T22:34:38.083Z,1.40
2018-08-30T22:37:41.099Z,1.00
2018-08-30T22:40:44.112Z,1.20
2018-08-30T22:43:47.277Z,1.20
2018-08-30T22:46:50.311Z,1.90
2018-08-30T22:49:53.366Z,1.40
2018-08-30T22:52:56.454Z,1.30
2018-08-30T22:55:59.506Z,0.90
2018-08-30T22:59:02.528Z,2.70
2018-08-30T23:02:05.455Z,1.00
2018-08-30T23:05:08.412Z,1.30
2018-08-30T23:08:11.422Z,1.30
2018-08-30T23:11:14.421Z,1.70
2018-08-30T23:14:18.066Z,1.73
2018-08-30T23:17:21.170Z,1.50
2018-08-30T23:20:24.333Z,1.43
2018-08-30T23:23:27.430Z,1.70
2018-08-30T23:26:30.586Z,1.73
2018-08-30T23:29:33.583Z,1.40
2018-08-30T23:32:36.633Z,1.50
2018-08-30T23:35:39.572Z,2.20
2018-08-30T23:38:42.496Z,1.40
2018-08-30T23:41:46.657Z,1.30
2018-08-30T23:44:49.652Z,1.40
2018-08-30T23:47:52.673Z,1.60
2018-08-30T23:50:55.731Z,1.60
2018-08-30T23:53:58.741Z,2.10
2018-08-30T23:57:01.737Z,1.40
